Ecuador Ama la vida
Dirección General de Aviación Civil
IFIS
Sábado 21 de Julio del 2018
Buscar por aerodromo o helipuerto
Ingrese nombre de aeródromo, localidad o designador OACI:

Aeródromo: Mariscal Sucre Intl. (SEQM)

Ubicación: Quito, Pichincha Región, Ecuador (00º 07' 25'' S, 78º 21' 16'' W) Ver ubicación en el mapa

Pistas

Orientación Dimensión Pendiente Superficie Resistencia APCH THR RWY PAPI
18 4098 X 45 M 1,00 Pavimento 76/F/B/W/T Sí (3.2º)
36 4098 X 45 M -1,00 Pavimento 76/F/B/W/T Sí (3.2º)
Horas de operación H24
Elevación 7910 ft
andera de Ecuador
Mapa de Mariscal Sucre Intl. (SEQM)

Último METAR

SEQM 210900Z 09002KT 9999 FEW030 08/08 Q1024 NOSIG RMK A3025=

Último TAF

SEQM 210430Z 2106/2206 VRB03KT 9999 FEW030 BECMG 2113/2114 SCT040 BECMG 2117/2118 01014KT FM220000 03004KT 9999 FEW030 TX24/2119Z TN07/2111Z

Último SIGMET

No hay SIGMET vigentes para la FIR del Aeródromo

Último NOTAM

A0725/18 NOTAMR A0200/18 Q)SEFG/QMAHW/IV/B/A/000/999/0007S07821W005 A)SEQM B)1805011740 C)1808021100 E)WIP IN GREEN AREAS MOV AREA, SUBJ TFC. CTN

Últimas fotos cámaras

Imagen aerodromo Mariscal Sucre Intl. (SEQM) Oeste tomada el 02-07-2018 04:01:07

LLegadas a Mariscal Sucre Intl. (SEQM)

En vuelo

Salidas de Mariscal Sucre Intl. (SEQM)

En vuelo